Time;durP1;ratioP1;P1;durP2;ratioP2;P2;SDS_P1;SDS_P2;PMS_P1;PMS_P2;Temp;Humidity;BMP_temperature;BMP_pressure;BME280_temperature;BME280_humidity;BME280_pressure;Samples;Min_cycle;Max_cycle;Signal;HPM_P1;HPM_P2
2022/07/30 00:01:05;;;;;;;4.70;3.13;;;19.50;64.20;;;;;;5026432;28;20410;-79
2022/07/30 00:03:31;;;;;;;3.65;3.03;;;19.50;63.90;;;;;;4987144;28;20041;-78
2022/07/30 00:05:57;;;;;;;6.13;4.05;;;19.40;66.20;;;;;;4984390;28;20036;-78
2022/07/30 00:08:22;;;;;;;5.75;4.18;;;19.30;63.60;;;;;;5008854;28;20042;-78
2022/07/30 00:10:48;;;;;;;5.28;3.08;;;19.20;63.70;;;;;;4978289;28;20022;-79
2022/07/30 00:13:14;;;;;;;3.35;3.00;;;19.10;64.50;;;;;;4994747;28;20088;-79
2022/07/30 00:15:39;;;;;;;4.05;3.08;;;19.10;64.20;;;;;;4976409;28;20047;-78
2022/07/30 00:18:05;;;;;;;7.05;3.67;;;19.00;65.00;;;;;;4992606;28;20038;-78
2022/07/30 00:20:31;;;;;;;5.53;3.35;;;19.00;64.50;;;;;;4990890;28;20112;-79
2022/07/30 00:22:56;;;;;;;3.88;3.20;;;18.90;64.60;;;;;;4992004;28;20041;-78
2022/07/30 00:25:22;;;;;;;5.38;3.40;;;18.80;64.60;;;;;;4988138;28;20053;-78
2022/07/30 00:27:48;;;;;;;5.43;4.38;;;18.80;65.30;;;;;;5025828;28;20029;-78
2022/07/30 00:30:13;;;;;;;5.70;3.95;;;18.70;64.70;;;;;;4978425;28;20146;-78
2022/07/30 00:32:39;;;;;;;9.27;4.65;;;18.70;66.60;;;;;;4990593;28;20029;-78
2022/07/30 00:35:05;;;;;;;9.95;5.00;;;18.70;66.70;;;;;;4973934;28;20548;-78
2022/07/30 00:37:31;;;;;;;4.13;3.45;;;18.60;66.10;;;;;;5009756;28;20161;-78
2022/07/30 00:39:56;;;;;;;7.78;3.35;;;18.60;67.00;;;;;;5000247;28;20053;-78
2022/07/30 00:42:24;;;;;;;5.22;3.20;;;18.70;69.80;;;;;;5010601;28;20149;-78
2022/07/30 00:44:51;;;;;;;3.80;3.22;;;18.70;68.60;;;;;;5008909;28;20061;-78
2022/07/30 00:47:17;;;;;;;4.25;3.00;;;18.70;69.30;;;;;;4995023;28;20034;-78
2022/07/30 00:49:42;;;;;;;3.67;2.95;;;18.50;68.00;;;;;;4988704;28;20097;-78
2022/07/30 00:52:08;;;;;;;3.75;3.20;;;18.40;68.30;;;;;;5005293;28;20057;-78
2022/07/30 00:54:34;;;;;;;5.28;3.42;;;18.40;68.50;;;;;;4991590;28;20445;-79
2022/07/30 00:56:59;;;;;;;4.72;3.28;;;18.30;69.80;;;;;;4993058;28;20120;-78
2022/07/30 00:59:27;;;;;;;10.70;4.85;;;18.30;68.80;;;;;;5026983;28;20084;-78
2022/07/30 01:01:53;;;;;;;5.55;4.07;;;18.20;68.90;;;;;;4977796;28;20091;-78
2022/07/30 01:04:18;;;;;;;3.88;3.22;;;18.10;68.90;;;;;;5025017;28;20033;-78
2022/07/30 01:06:44;;;;;;;6.38;3.90;;;18.00;69.30;;;;;;5011016;28;20482;-78
2022/07/30 01:09:09;;;;;;;6.55;3.80;;;18.00;69.30;;;;;;5011049;28;20570;-78
2022/07/30 01:11:37;;;;;;;5.80;3.50;;;18.00;69.30;;;;;;4994874;28;20045;-78
2022/07/30 01:14:06;;;;;;;4.38;3.17;;;17.90;69.40;;;;;;5010724;28;20037;-78
2022/07/30 01:16:33;;;;;;;5.18;3.85;;;17.90;70.60;;;;;;4995138;28;20040;-78
2022/07/30 01:21:44;;;;;;;6.03;4.15;;;17.80;70.10;;;;;;5013255;28;20033;-78
2022/07/30 01:24:47;;;;;;;4.25;3.03;;;17.50;69.40;;;;;;5005876;28;20037;-78
2022/07/30 01:27:13;;;;;;;6.82;4.25;;;17.60;70.10;;;;;;5006511;28;20029;-78
2022/07/30 01:29:38;;;;;;;4.25;3.13;;;17.60;71.10;;;;;;5008241;28;20453;-78
2022/07/30 01:32:06;;;;;;;3.65;3.22;;;17.40;70.60;;;;;;4991141;28;20045;-77
2022/07/30 01:34:32;;;;;;;5.82;3.72;;;17.50;71.20;;;;;;5016537;28;20033;-78
2022/07/30 01:36:58;;;;;;;5.32;3.28;;;17.40;70.00;;;;;;4989725;28;20412;-78
2022/07/30 01:39:25;;;;;;;7.30;4.55;;;17.30;70.70;;;;;;5006691;28;20048;-78
2022/07/30 01:41:51;;;;;;;5.25;3.65;;;17.30;70.50;;;;;;5006430;28;20030;-78
2022/07/30 01:44:17;;;;;;;5.32;3.78;;;17.20;70.40;;;;;;4993174;28;20103;-78
2022/07/30 01:46:43;;;;;;;6.03;5.03;;;17.20;70.90;;;;;;5008935;28;20402;-77
2022/07/30 01:49:08;;;;;;;5.53;4.35;;;17.20;72.60;;;;;;4983031;28;20065;-77
2022/07/30 01:51:34;;;;;;;8.43;4.75;;;17.10;71.60;;;;;;5001187;28;20038;-77
2022/07/30 01:53:59;;;;;;;4.32;3.28;;;17.10;72.90;;;;;;5010018;28;20444;-77
2022/07/30 01:56:25;;;;;;;7.65;4.53;;;17.10;72.20;;;;;;5008262;28;20405;-78
2022/07/30 01:58:50;;;;;;;5.95;4.45;;;17.00;71.90;;;;;;4992494;28;20029;-77
2022/07/30 02:01:16;;;;;;;4.75;3.92;;;16.90;72.90;;;;;;5011409;28;20422;-78
2022/07/30 02:03:42;;;;;;;6.60;3.85;;;17.00;71.70;;;;;;4996252;28;20478;-77
2022/07/30 02:06:16;;;;;;;7.38;3.70;;;16.90;72.70;;;;;;4979377;28;20026;-77
2022/07/30 02:08:44;;;;;;;6.18;4.30;;;16.80;73.50;;;;;;4992874;28;20030;-77
2022/07/30 02:11:14;;;;;;;5.97;3.75;;;16.80;73.40;;;;;;4993871;28;20045;-77
2022/07/30 02:13:50;;;;;;;6.20;4.43;;;16.70;72.90;;;;;;5011122;28;20551;-77
2022/07/30 02:16:21;;;;;;;8.20;4.57;;;16.70;73.50;;;;;;4985016;28;20121;-77
2022/07/30 02:19:02;;;;;;;7.45;5.05;;;16.60;74.00;;;;;;4973175;28;20025;-77
2022/07/30 02:21:28;;;;;;;4.60;4.20;;;16.60;74.10;;;;;;5002703;28;20520;-77
2022/07/30 02:23:54;;;;;;;6.10;4.18;;;16.50;73.50;;;;;;4975398;28;20042;-77
2022/07/30 02:26:21;;;;;;;10.50;5.50;;;16.50;73.30;;;;;;5020900;28;20034;-77
2022/07/30 02:28:49;;;;;;;7.03;5.75;;;16.50;75.70;;;;;;5000254;28;20485;-77
2022/07/30 02:31:16;;;;;;;5.45;4.38;;;16.50;74.20;;;;;;5004190;28;20514;-77
2022/07/30 02:33:41;;;;;;;8.13;4.15;;;16.50;73.70;;;;;;5002000;28;20030;-77
2022/07/30 02:36:08;;;;;;;5.57;3.28;;;16.40;75.30;;;;;;4983656;28;20037;-77
2022/07/30 02:38:34;;;;;;;8.68;4.60;;;16.30;73.10;;;;;;4989905;28;20057;-77
2022/07/30 02:40:59;;;;;;;6.40;5.57;;;16.20;74.00;;;;;;4991401;28;20062;-77
2022/07/30 02:43:25;;;;;;;5.13;4.63;;;16.20;78.90;;;;;;4977717;28;20077;-77
2022/07/30 02:45:51;;;;;;;7.75;5.57;;;16.10;75.90;;;;;;5008031;28;20072;-77
2022/07/30 02:48:17;;;;;;;8.93;5.97;;;16.00;80.10;;;;;;4994023;28;20054;-77
2022/07/30 02:50:43;;;;;;;9.90;6.40;;;16.00;79.40;;;;;;4983851;28;20510;-77
2022/07/30 02:53:09;;;;;;;7.03;5.40;;;15.90;82.10;;;;;;4995920;28;20040;-77
2022/07/30 02:55:35;;;;;;;7.07;5.70;;;16.10;78.70;;;;;;4976351;28;20068;-77
2022/07/30 02:58:02;;;;;;;7.40;4.70;;;16.10;77.20;;;;;;4984537;28;20068;-77
2022/07/30 03:00:27;;;;;;;6.75;4.43;;;16.10;78.40;;;;;;4992379;28;20421;-77
2022/07/30 03:02:53;;;;;;;7.35;5.68;;;16.10;79.00;;;;;;4998724;28;20061;-77
2022/07/30 03:05:18;;;;;;;10.30;5.38;;;16.00;78.40;;;;;;4978957;28;20477;-77
2022/07/30 03:07:44;;;;;;;6.85;5.38;;;16.10;80.90;;;;;;4998726;28;20101;-77
2022/07/30 03:10:10;;;;;;;7.22;4.15;;;15.90;82.00;;;;;;5001802;28;20034;-77
2022/07/30 03:12:36;;;;;;;5.07;4.43;;;16.00;80.30;;;;;;4974489;28;20034;-77
2022/07/30 03:15:01;;;;;;;4.95;3.97;;;16.00;79.70;;;;;;4992631;28;20397;-77
2022/07/30 03:17:27;;;;;;;8.77;5.55;;;16.10;81.70;;;;;;4989836;28;20401;-77
2022/07/30 03:19:54;;;;;;;8.45;4.38;;;16.20;80.90;;;;;;4989728;28;20030;-77
2022/07/30 03:22:20;;;;;;;10.52;5.65;;;15.90;82.20;;;;;;4974117;28;20072;-77
2022/07/30 03:24:45;;;;;;;5.93;4.60;;;15.90;83.70;;;;;;4996411;28;20029;-77
2022/07/30 03:27:12;;;;;;;10.82;4.22;;;15.80;83.60;;;;;;5025935;28;20113;-77
2022/07/30 03:29:38;;;;;;;7.97;6.20;;;15.80;81.60;;;;;;4994755;28;20037;-77
2022/07/30 03:32:04;;;;;;;5.57;4.70;;;15.90;85.20;;;;;;5004159;28;20117;-77
2022/07/30 03:34:32;;;;;;;7.65;4.63;;;15.90;86.60;;;;;;4984491;28;20418;-77
2022/07/30 03:36:57;;;;;;;5.47;3.53;;;15.80;84.80;;;;;;4995857;28;20026;-77
2022/07/30 03:39:23;;;;;;;8.93;4.72;;;15.90;85.70;;;;;;5000534;28;20348;-77
2022/07/30 03:41:48;;;;;;;7.30;5.72;;;15.80;85.70;;;;;;4983841;28;20022;-77
2022/07/30 03:44:14;;;;;;;12.70;6.50;;;15.70;86.50;;;;;;4990999;28;20045;-77
2022/07/30 03:46:39;;;;;;;8.88;6.60;;;15.60;88.40;;;;;;4982943;28;20038;-77
2022/07/30 03:49:05;;;;;;;9.07;7.20;;;15.60;87.90;;;;;;4968464;28;20042;-77
2022/07/30 03:51:32;;;;;;;7.55;5.75;;;15.50;89.20;;;;;;5018641;28;20442;-77
2022/07/30 03:53:57;;;;;;;10.35;7.97;;;15.40;87.00;;;;;;4992750;28;20486;-77
2022/07/30 03:56:23;;;;;;;12.23;8.10;;;15.30;88.40;;;;;;4981089;28;20037;-77
2022/07/30 03:58:49;;;;;;;10.00;5.90;;;15.30;88.50;;;;;;4969962;28;20160;-77
2022/07/30 04:01:14;;;;;;;12.00;8.07;;;15.20;90.10;;;;;;4980985;28;20483;-77
2022/07/30 04:03:40;;;;;;;13.75;8.68;;;15.20;92.30;;;;;;5004563;28;20033;-77
2022/07/30 04:06:05;;;;;;;7.07;5.65;;;15.10;93.50;;;;;;4983467;28;20053;-77
2022/07/30 04:08:31;;;;;;;8.70;5.78;;;15.20;90.80;;;;;;4981939;28;20060;-77
2022/07/30 04:10:56;;;;;;;7.78;5.22;;;15.30;90.40;;;;;;4986229;28;20041;-77
2022/07/30 04:13:22;;;;;;;9.25;5.20;;;15.50;90.20;;;;;;4986583;28;20478;-77
2022/07/30 04:16:15;;;;;;;9.93;4.68;;;15.50;89.70;;;;;;4981030;28;20026;-77
2022/07/30 04:18:43;;;;;;;6.90;6.15;;;15.60;90.40;;;;;;5004927;28;20114;-77
2022/07/30 04:21:10;;;;;;;5.95;4.03;;;15.40;90.20;;;;;;4969486;28;20057;-77
2022/07/30 04:23:36;;;;;;;10.70;7.47;;;15.30;89.60;;;;;;4989684;28;20026;-77
2022/07/30 04:26:01;;;;;;;5.25;4.75;;;15.30;91.00;;;;;;5000037;28;20049;-77
2022/07/30 04:28:27;;;;;;;7.55;4.75;;;15.40;91.80;;;;;;5004251;28;20022;-77
2022/07/30 04:30:53;;;;;;;8.93;5.93;;;15.50;91.80;;;;;;4992895;28;20034;-77
2022/07/30 04:33:19;;;;;;;7.88;5.72;;;15.30;91.40;;;;;;4987447;28;20042;-76
2022/07/30 04:35:44;;;;;;;10.23;7.22;;;15.30;91.80;;;;;;5016771;28;20038;-76
2022/07/30 04:38:12;;;;;;;14.60;7.80;;;15.30;92.90;;;;;;5004655;28;20494;-76
2022/07/30 04:40:38;;;;;;;11.35;9.55;;;15.20;92.80;;;;;;4969669;28;20029;-76
2022/07/30 04:43:03;;;;;;;7.95;5.20;;;15.20;93.00;;;;;;4972200;28;20719;-77
2022/07/30 04:45:29;;;;;;;11.95;8.63;;;15.30;92.20;;;;;;5006692;28;20125;-77
2022/07/30 04:47:55;;;;;;;10.45;7.68;;;15.30;91.90;;;;;;4990366;28;20050;-77
2022/07/30 04:50:24;;;;;;;13.48;7.95;;;15.30;91.70;;;;;;5002785;28;20093;-77
2022/07/30 04:52:50;;;;;;;8.98;5.75;;;15.30;91.70;;;;;;4992366;28;20064;-77
2022/07/30 04:55:16;;;;;;;12.85;9.30;;;15.40;91.50;;;;;;4989964;28;20035;-77
2022/07/30 04:57:41;;;;;;;7.10;5.65;;;15.50;92.20;;;;;;5002534;28;20041;-77
2022/07/30 05:00:08;;;;;;;6.60;5.68;;;15.70;91.20;;;;;;4999022;28;20113;-77
2022/07/30 05:02:34;;;;;;;10.02;7.18;;;15.90;90.80;;;;;;4997010;28;20030;-77
2022/07/30 05:04:59;;;;;;;5.35;4.45;;;15.80;91.80;;;;;;4996462;28;20046;-77
2022/07/30 05:07:25;;;;;;;10.45;7.57;;;16.00;91.10;;;;;;4987444;28;20034;-77
2022/07/30 05:09:51;;;;;;;5.50;4.90;;;16.00;90.80;;;;;;4972567;28;20102;-77
2022/07/30 05:12:16;;;;;;;8.95;6.18;;;16.20;90.50;;;;;;4974268;28;20069;-77
2022/07/30 05:14:42;;;;;;;11.75;9.60;;;16.30;91.10;;;;;;4988684;28;20085;-77
2022/07/30 05:17:07;;;;;;;15.82;10.13;;;16.40;90.30;;;;;;4969348;28;20109;-77
2022/07/30 05:19:33;;;;;;;12.43;6.82;;;16.50;90.20;;;;;;4981584;28;20061;-77
2022/07/30 05:21:58;;;;;;;21.58;12.30;;;16.60;90.90;;;;;;4987451;28;20031;-77
2022/07/30 05:24:24;;;;;;;10.02;8.00;;;16.60;91.80;;;;;;4981419;28;20288;-77
2022/07/30 05:26:50;;;;;;;20.23;15.35;;;16.70;90.70;;;;;;4994954;28;20042;-77
2022/07/30 05:29:15;;;;;;;25.63;17.85;;;16.70;91.40;;;;;;4987548;28;20092;-77
2022/07/30 05:31:41;;;;;;;23.60;14.13;;;16.80;91.90;;;;;;4999512;28;20034;-77
2022/07/30 05:34:06;;;;;;;8.30;6.10;;;16.90;91.20;;;;;;4980589;28;20428;-77
2022/07/30 05:36:32;;;;;;;9.52;6.40;;;17.00;90.00;;;;;;4958902;28;20042;-77
2022/07/30 05:38:58;;;;;;;17.90;11.73;;;17.20;92.00;;;;;;4991743;28;20042;-77
2022/07/30 05:41:23;;;;;;;15.38;9.25;;;17.20;91.20;;;;;;4970259;28;20038;-77
2022/07/30 05:43:49;;;;;;;7.03;5.40;;;17.40;91.40;;;;;;4994643;28;20045;-77
2022/07/30 05:46:14;;;;;;;11.18;8.32;;;17.50;90.20;;;;;;4989414;28;20060;-77
2022/07/30 05:48:40;;;;;;;9.73;7.43;;;17.60;89.20;;;;;;4978793;28;20128;-77
2022/07/30 05:51:05;;;;;;;13.32;8.45;;;17.80;88.70;;;;;;4982947;28;20057;-77
2022/07/30 05:53:31;;;;;;;12.20;8.45;;;17.90;88.10;;;;;;5002980;28;20045;-77
2022/07/30 05:55:57;;;;;;;21.52;12.43;;;18.10;89.00;;;;;;4983434;28;20026;-78
2022/07/30 05:58:22;;;;;;;14.15;8.45;;;18.30;89.10;;;;;;4978297;28;20046;-78
2022/07/30 06:00:48;;;;;;;16.83;9.02;;;18.50;89.60;;;;;;4998522;28;20091;-78
2022/07/30 06:03:13;;;;;;;23.40;13.15;;;18.70;89.30;;;;;;4991938;28;20105;-77
2022/07/30 06:05:39;;;;;;;16.98;10.07;;;18.80;90.00;;;;;;5006575;28;20107;-77
2022/07/30 06:08:05;;;;;;;32.28;14.27;;;18.90;89.40;;;;;;4963190;28;20031;-78
2022/07/30 06:10:30;;;;;;;37.75;18.25;;;19.00;89.40;;;;;;4998171;28;20477;-78
2022/07/30 06:12:56;;;;;;;20.40;10.40;;;19.10;89.00;;;;;;4977808;28;20059;-78
2022/07/30 06:15:21;;;;;;;25.50;12.48;;;19.20;88.30;;;;;;4964333;28;20038;-78
2022/07/30 06:17:47;;;;;;;31.60;14.98;;;19.30;89.20;;;;;;4980768;28;20057;-78
2022/07/30 06:20:13;;;;;;;26.88;15.45;;;19.40;89.00;;;;;;5000960;28;20030;-77
2022/07/30 06:22:39;;;;;;;27.35;13.93;;;19.60;89.60;;;;;;4979492;28;20037;-77
2022/07/30 06:25:06;;;;;;;33.38;19.65;;;19.60;88.30;;;;;;4990732;28;20031;-78
2022/07/30 06:27:32;;;;;;;22.25;11.95;;;19.70;89.50;;;;;;4975720;28;20155;-78
2022/07/30 06:30:00;;;;;;;40.75;21.55;;;19.90;87.00;;;;;;4993079;28;20038;-77
2022/07/30 06:32:26;;;;;;;39.70;22.35;;;20.10;90.80;;;;;;4995040;28;20033;-78
2022/07/30 06:34:52;;;;;;;34.83;18.13;;;20.20;90.60;;;;;;4977388;28;20027;-78
2022/07/30 06:37:17;;;;;;;30.50;15.25;;;20.30;89.30;;;;;;4978158;28;20084;-78
2022/07/30 06:39:43;;;;;;;34.97;19.23;;;20.40;89.40;;;;;;5000629;28;20113;-77
2022/07/30 06:42:08;;;;;;;37.60;18.27;;;20.50;89.90;;;;;;5003283;28;20033;-78
2022/07/30 06:44:34;;;;;;;40.47;23.50;;;20.70;89.60;;;;;;4990985;28;20026;-78
2022/07/30 06:46:59;;;;;;;32.22;18.10;;;20.90;90.70;;;;;;4982176;28;20041;-78
2022/07/30 06:49:25;;;;;;;40.92;21.90;;;20.90;89.80;;;;;;4982359;28;20104;-78
2022/07/30 06:51:51;;;;;;;35.88;20.08;;;20.80;89.50;;;;;;4973619;28;20038;-77
2022/07/30 06:54:16;;;;;;;36.45;21.25;;;21.00;90.50;;;;;;4980584;28;20126;-78
2022/07/30 06:56:42;;;;;;;48.33;27.88;;;21.20;90.30;;;;;;4994083;28;20061;-78
2022/07/30 06:59:08;;;;;;;42.65;23.65;;;21.40;90.80;;;;;;5019843;28;20034;-78
2022/07/30 07:01:33;;;;;;;52.05;30.50;;;21.50;90.40;;;;;;4994168;28;20035;-78
2022/07/30 07:03:59;;;;;;;46.97;31.38;;;21.50;90.40;;;;;;4995491;28;20161;-78
2022/07/30 07:06:24;;;;;;;50.42;30.23;;;21.60;90.70;;;;;;5015736;28;20057;-78
2022/07/30 07:08:50;;;;;;;56.20;34.92;;;21.70;90.70;;;;;;5001275;28;20066;-78
2022/07/30 07:11:15;;;;;;;61.35;36.90;;;21.70;90.80;;;;;;4979168;28;20047;-78
2022/07/30 07:13:41;;;;;;;53.40;32.42;;;21.80;90.60;;;;;;4962633;28;20038;-78
2022/07/30 07:16:06;;;;;;;62.88;35.55;;;21.90;90.60;;;;;;4984534;28;20378;-78
2022/07/30 07:18:32;;;;;;;48.15;26.35;;;22.00;90.50;;;;;;4973126;28;20479;-78
2022/07/30 07:20:57;;;;;;;66.93;39.10;;;22.20;89.30;;;;;;4978703;28;20530;-78
2022/07/30 07:23:23;;;;;;;60.60;33.70;;;22.20;89.80;;;;;;4961195;28;20406;-78
2022/07/30 07:25:49;;;;;;;93.20;48.05;;;22.30;88.30;;;;;;5006917;28;20030;-78
2022/07/30 07:28:14;;;;;;;78.25;37.22;;;22.30;88.50;;;;;;4982096;28;20042;-78
2022/07/30 07:30:40;;;;;;;77.97;38.42;;;22.20;86.60;;;;;;5002784;28;20057;-78
2022/07/30 07:33:06;;;;;;;72.72;30.52;;;22.20;87.10;;;;;;4980516;28;20045;-78
2022/07/30 07:35:32;;;;;;;71.72;37.00;;;21.90;86.40;;;;;;4978649;28;20290;-78
2022/07/30 07:37:57;;;;;;;79.63;40.53;;;21.90;86.30;;;;;;4975168;28;20041;-78
2022/07/30 07:40:23;;;;;;;83.28;44.15;;;22.10;86.90;;;;;;4978845;28;20030;-78
2022/07/30 07:42:49;;;;;;;70.13;38.47;;;22.30;87.80;;;;;;5006396;28;20029;-78
2022/07/30 07:45:14;;;;;;;68.72;35.05;;;22.40;84.30;;;;;;4975635;28;20046;-78
2022/07/30 07:47:46;;;;;;;65.65;38.95;;;22.50;84.50;;;;;;5008739;28;20432;-78
2022/07/30 07:50:16;;;;;;;60.33;34.97;;;22.70;85.10;;;;;;4972316;28;20038;-78
2022/07/30 07:52:41;;;;;;;69.15;38.70;;;22.90;85.30;;;;;;4992632;28;20040;-78
2022/07/30 07:55:07;;;;;;;70.50;39.67;;;22.90;83.10;;;;;;4974918;28;20030;-78
2022/07/30 07:57:43;;;;;;;78.22;42.97;;;22.90;84.40;;;;;;4991552;28;20096;-78
2022/07/30 08:00:09;;;;;;;;;;;23.40;85.00;;;;;;4990556;28;20068;-78
2022/07/30 08:02:35;;;;;;;70.43;39.28;;;23.70;83.80;;;;;;4996512;28;19920;-78
2022/07/30 08:05:01;;;;;;;57.83;33.25;;;23.80;83.00;;;;;;4971574;28;20041;-78
2022/07/30 08:07:28;;;;;;;62.60;37.38;;;24.10;83.10;;;;;;4974972;28;20121;-78
2022/07/30 08:09:54;;;;;;;55.83;37.45;;;24.20;82.50;;;;;;4978282;28;20041;-79
2022/07/30 08:12:19;;;;;;;51.88;32.08;;;24.40;81.50;;;;;;5011227;28;20037;-79
2022/07/30 08:14:45;;;;;;;46.97;30.17;;;24.60;80.30;;;;;;5016991;28;20068;-79
2022/07/30 08:17:10;;;;;;;49.33;30.95;;;24.60;80.00;;;;;;5001619;28;20308;-79
2022/07/30 08:19:36;;;;;;;49.00;31.08;;;24.70;79.90;;;;;;4991712;28;20029;-79
2022/07/30 08:22:01;;;;;;;51.45;31.95;;;24.70;79.40;;;;;;4961063;28;20034;-79
2022/07/30 08:24:27;;;;;;;50.95;32.83;;;24.90;78.80;;;;;;4976948;28;20456;-79
2022/07/30 08:26:53;;;;;;;42.35;28.23;;;25.10;78.70;;;;;;4988714;28;20497;-79
2022/07/30 08:29:18;;;;;;;39.38;28.30;;;25.30;78.00;;;;;;4990168;28;20371;-79
2022/07/30 08:31:44;;;;;;;32.85;25.48;;;25.40;77.20;;;;;;4993412;28;20057;-79
2022/07/30 08:34:09;;;;;;;35.45;23.85;;;25.50;76.60;;;;;;4982866;28;20034;-79
2022/07/30 08:36:35;;;;;;;33.83;23.05;;;25.60;75.10;;;;;;4984236;28;20029;-79
2022/07/30 08:39:00;;;;;;;42.35;28.63;;;25.60;75.70;;;;;;5000531;28;20033;-79
2022/07/30 08:41:26;;;;;;;35.08;23.13;;;26.10;75.10;;;;;;4979157;28;20092;-79
2022/07/30 08:43:51;;;;;;;37.25;22.58;;;26.20;73.70;;;;;;4977836;28;20046;-79
2022/07/30 08:46:17;;;;;;;35.25;24.40;;;26.20;73.00;;;;;;4976760;28;20058;-79
2022/07/30 08:48:43;;;;;;;31.88;23.20;;;26.20;73.00;;;;;;4976195;28;20046;-79
2022/07/30 08:51:08;;;;;;;32.65;22.88;;;26.50;72.60;;;;;;4986138;28;20050;-79
2022/07/30 08:53:34;;;;;;;32.85;24.80;;;26.80;70.90;;;;;;4993853;28;20450;-79
2022/07/30 08:56:00;;;;;;;32.78;22.08;;;26.80;71.80;;;;;;4993604;28;20037;-78
2022/07/30 08:58:28;;;;;;;28.05;21.90;;;27.20;69.60;;;;;;4993623;28;20085;-78
2022/07/30 09:00:54;;;;;;;26.02;20.30;;;27.20;69.60;;;;;;4998763;28;20022;-78
2022/07/30 09:03:20;;;;;;;29.02;20.80;;;27.30;69.20;;;;;;4982628;28;20406;-78
2022/07/30 09:05:46;;;;;;;23.77;18.92;;;27.30;68.00;;;;;;5008472;28;20037;-79
2022/07/30 09:08:11;;;;;;;23.65;18.20;;;27.30;68.70;;;;;;4980128;28;20030;-79
2022/07/30 09:10:37;;;;;;;20.63;15.75;;;27.50;68.80;;;;;;4997087;28;20513;-79
2022/07/30 09:13:03;;;;;;;21.30;15.98;;;27.90;67.20;;;;;;4976332;28;20030;-79
2022/07/30 09:15:28;;;;;;;21.85;15.38;;;27.90;67.10;;;;;;4957368;28;20074;-79
2022/07/30 09:17:55;;;;;;;16.58;13.23;;;27.90;66.90;;;;;;4975778;28;20658;-79
2022/07/30 09:20:23;;;;;;;16.25;13.60;;;28.00;66.60;;;;;;4973279;28;20422;-81
2022/07/30 09:22:56;;;;;;;22.38;16.25;;;28.00;67.20;;;;;;4961737;28;20029;-80
2022/07/30 09:25:36;;;;;;;16.13;12.55;;;28.10;66.10;;;;;;5000777;28;20037;-80
2022/07/30 09:28:05;;;;;;;13.50;11.55;;;28.40;64.70;;;;;;4987021;28;20038;-80
2022/07/30 09:30:49;;;;;;;16.20;12.38;;;28.40;64.90;;;;;;4980310;28;20113;-80
2022/07/30 09:33:29;;;;;;;14.60;9.82;;;28.60;64.50;;;;;;5006813;28;20063;-80
2022/07/30 09:35:55;;;;;;;13.88;10.40;;;28.60;64.20;;;;;;4972832;28;20041;-80
2022/07/30 09:38:22;;;;;;;13.13;8.50;;;28.80;63.70;;;;;;4973406;28;20690;-81
2022/07/30 09:40:55;;;;;;;12.27;8.50;;;29.00;63.10;;;;;;4996414;28;20528;-80
2022/07/30 09:43:21;;;;;;;9.82;6.32;;;29.30;60.10;;;;;;4979365;28;20114;-81
2022/07/30 09:45:51;;;;;;;9.00;6.40;;;29.20;61.80;;;;;;4981660;28;20140;-81
2022/07/30 09:48:20;;;;;;;13.10;6.65;;;29.20;62.60;;;;;;4975526;28;22076;-81
2022/07/30 09:50:49;;;;;;;10.52;7.13;;;29.40;61.80;;;;;;4972506;28;20046;-79
2022/07/30 09:53:15;;;;;;;8.02;5.97;;;29.70;60.80;;;;;;4985861;28;20549;-82
2022/07/30 09:55:41;;;;;;;9.75;6.38;;;29.80;60.50;;;;;;4991150;28;20141;-82
2022/07/30 09:58:06;;;;;;;9.73;6.38;;;29.90;59.40;;;;;;4959173;28;20068;-81
2022/07/30 10:00:33;;;;;;;10.07;6.43;;;29.90;58.70;;;;;;4982975;28;20033;-82
2022/07/30 10:02:59;;;;;;;8.93;5.90;;;29.80;59.00;;;;;;4997777;28;20034;-83
2022/07/30 10:05:25;;;;;;;6.38;5.43;;;29.90;59.10;;;;;;5019019;28;20455;-83
2022/07/30 10:07:55;;;;;;;9.43;5.57;;;30.00;58.10;;;;;;4995979;28;20398;-82
2022/07/30 10:10:28;;;;;;;7.13;5.90;;;30.00;58.60;;;;;;4993659;28;20031;-83
2022/07/30 10:12:58;;;;;;;5.15;3.88;;;29.90;58.30;;;;;;4980254;28;20120;-83
2022/07/30 10:15:24;;;;;;;7.18;5.05;;;30.00;57.80;;;;;;4997770;28;20108;-84
2022/07/30 10:17:49;;;;;;;10.13;4.35;;;30.20;58.10;;;;;;4976329;28;20033;-84
2022/07/30 10:20:15;;;;;;;10.25;5.97;;;30.50;58.20;;;;;;5002477;28;20042;-84
2022/07/30 10:22:41;;;;;;;8.13;5.65;;;30.80;57.30;;;;;;4992385;28;20030;-84
2022/07/30 10:25:10;;;;;;;9.48;4.45;;;30.90;56.40;;;;;;4967135;28;20092;-84
2022/07/30 10:27:36;;;;;;;8.25;4.28;;;31.00;55.60;;;;;;4972962;28;20037;-84
2022/07/30 10:30:01;;;;;;;7.85;4.00;;;30.80;56.30;;;;;;4978594;28;20038;-85
2022/07/30 10:32:27;;;;;;;7.60;4.18;;;30.70;56.30;;;;;;4971924;28;20034;-83
2022/07/30 10:34:53;;;;;;;5.63;4.63;;;30.90;55.80;;;;;;4978867;28;20541;-85
2022/07/30 10:37:19;;;;;;;5.32;4.72;;;31.00;55.20;;;;;;4978085;28;20030;-85
2022/07/30 10:39:59;;;;;;;4.97;3.88;;;31.30;53.90;;;;;;4977295;28;20044;-84
2022/07/30 10:42:59;;;;;;;5.50;3.47;;;31.60;55.40;;;;;;4996828;28;20038;-83
2022/07/30 10:45:57;;;;;;;5.43;3.88;;;32.10;54.80;;;;;;4993549;28;20026;-82
2022/07/30 10:48:23;;;;;;;4.72;3.65;;;32.40;54.10;;;;;;5002732;28;20045;-82
2022/07/30 10:50:49;;;;;;;5.30;4.13;;;32.70;52.90;;;;;;4926967;28;1125750;-81
2022/07/30 10:53:33;;;;;;;4.68;3.10;;;32.80;52.50;;;;;;5007135;28;20125;-81
2022/07/30 10:56:18;;;;;;;5.55;3.80;;;33.00;52.90;;;;;;4977578;28;20117;-80
2022/07/30 10:59:16;;;;;;;6.80;2.63;;;33.30;51.60;;;;;;4991446;28;20494;-80
2022/07/30 11:01:47;;;;;;;4.28;2.97;;;33.50;51.20;;;;;;4932074;28;20033;-80
2022/07/30 11:04:21;;;;;;;3.65;3.33;;;33.30;50.20;;;;;;4993992;28;20037;-79
2022/07/30 11:06:47;;;;;;;3.70;3.08;;;33.40;49.60;;;;;;5007524;28;20477;-79
2022/07/30 11:09:34;;;;;;;4.53;3.28;;;33.60;49.30;;;;;;4960373;28;20034;-80
2022/07/30 11:11:59;;;;;;;3.95;3.03;;;33.70;48.50;;;;;;4994828;28;20037;-80
2022/07/30 11:14:46;;;;;;;6.53;3.42;;;33.60;49.80;;;;;;4974515;28;20026;-79
2022/07/30 11:17:16;;;;;;;5.07;3.55;;;33.80;48.40;;;;;;4989585;28;20030;-79
2022/07/30 11:20:07;;;;;;;4.50;2.97;;;34.20;47.60;;;;;;4997597;28;20022;-79
2022/07/30 11:22:37;;;;;;;4.55;3.22;;;34.00;48.00;;;;;;5011829;28;20512;-79
2022/07/30 11:25:07;;;;;;;9.00;2.95;;;33.90;47.20;;;;;;4991964;28;20123;-79
2022/07/30 11:27:45;;;;;;;5.25;2.20;;;34.10;46.20;;;;;;4965307;28;20033;-79
2022/07/30 11:30:17;;;;;;;4.75;2.38;;;34.10;46.80;;;;;;4961940;28;20124;-80
2022/07/30 11:32:43;;;;;;;5.63;2.47;;;33.90;45.50;;;;;;4993944;28;20034;-79
2022/07/30 11:35:30;;;;;;;4.45;2.25;;;34.00;46.20;;;;;;4977245;28;20031;-79
2022/07/30 11:38:14;;;;;;;6.13;2.30;;;33.90;46.10;;;;;;4959101;28;20030;-79
2022/07/30 11:40:49;;;;;;;6.70;1.92;;;34.00;45.30;;;;;;5007024;28;20026;-79
2022/07/30 11:43:23;;;;;;;4.73;2.20;;;33.90;45.60;;;;;;5014065;28;20402;-78
2022/07/30 11:45:50;;;;;;;6.07;2.42;;;34.10;45.00;;;;;;5003786;28;20271;-79
2022/07/30 11:48:17;;;;;;;3.88;2.33;;;34.00;44.50;;;;;;5004481;28;20053;-79
2022/07/30 11:50:42;;;;;;;5.65;2.30;;;34.10;42.30;;;;;;4999657;28;20045;-79
2022/07/30 11:53:18;;;;;;;4.45;2.15;;;34.00;44.20;;;;;;5017975;28;20033;-78
2022/07/30 11:55:52;;;;;;;3.97;2.10;;;34.10;44.40;;;;;;4968445;28;20038;-78
2022/07/30 11:58:30;;;;;;;2.95;1.73;;;34.20;45.20;;;;;;4980995;28;20038;-78
2022/07/30 12:01:03;;;;;;;4.68;2.50;;;34.30;45.10;;;;;;4992672;28;20033;-79
2022/07/30 12:03:30;;;;;;;3.22;1.80;;;34.50;42.50;;;;;;4987225;28;20113;-79
2022/07/30 12:06:01;;;;;;;2.67;2.28;;;34.90;42.80;;;;;;4959142;28;20026;-79
2022/07/30 12:08:27;;;;;;;4.95;1.88;;;34.60;41.90;;;;;;4993419;28;20056;-78
2022/07/30 12:10:59;;;;;;;2.78;1.60;;;34.50;42.50;;;;;;5002848;28;20045;-78
2022/07/30 12:13:25;;;;;;;5.40;2.00;;;34.40;42.90;;;;;;4985820;28;20061;-78
2022/07/30 12:15:51;;;;;;;2.40;1.75;;;34.50;43.40;;;;;;5002669;28;20062;-79
2022/07/30 12:18:28;;;;;;;2.00;1.63;;;34.50;42.40;;;;;;4963772;28;20127;-78
2022/07/30 12:20:58;;;;;;;2.72;1.52;;;34.60;41.70;;;;;;5014301;28;20493;-79
2022/07/30 12:23:24;;;;;;;5.70;1.80;;;34.80;42.70;;;;;;5003193;28;20040;-79
2022/07/30 12:25:50;;;;;;;5.50;1.98;;;35.10;41.50;;;;;;4984855;28;20557;-80
2022/07/30 12:28:19;;;;;;;5.00;1.73;;;35.00;40.80;;;;;;4992431;28;20509;-79
2022/07/30 12:30:45;;;;;;;2.33;1.45;;;34.90;40.50;;;;;;4994746;28;20040;-79
2022/07/30 12:33:10;;;;;;;3.83;1.60;;;35.00;41.60;;;;;;4987266;28;20925;-79
2022/07/30 12:35:53;;;;;;;3.85;1.65;;;34.80;41.40;;;;;;4960772;28;20569;-79
2022/07/30 12:38:20;;;;;;;4.80;1.67;;;34.70;41.20;;;;;;4991369;28;20046;-80
2022/07/30 12:41:01;;;;;;;2.47;1.42;;;34.80;41.00;;;;;;4964559;28;20379;-80
2022/07/30 12:43:46;;;;;;;4.88;1.70;;;35.20;41.50;;;;;;4998489;28;20509;-80
2022/07/30 12:46:15;;;;;;;3.25;1.40;;;34.90;41.60;;;;;;5016299;28;20022;-80